createdAt,value
2019-02-19T00:01:01.418Z,100436.20
2019-02-19T00:03:33.831Z,100434.67
2019-02-19T00:06:05.913Z,100436.87
2019-02-19T00:08:38.061Z,100426.20
2019-02-19T00:11:10.073Z,100425.02
2019-02-19T00:13:42.396Z,100424.00
2019-02-19T00:16:14.884Z,100416.88
2019-02-19T00:18:46.876Z,100417.40
2019-02-19T00:21:18.993Z,100418.06
2019-02-19T00:23:51.030Z,100411.62
2019-02-19T00:26:23.014Z,100417.40
2019-02-19T00:28:55.097Z,100409.23
2019-02-19T00:31:27.900Z,100406.54
2019-02-19T00:33:59.884Z,100410.59
2019-02-19T00:36:31.833Z,100402.63
2019-02-19T00:39:03.906Z,100405.00
2019-02-19T00:41:35.855Z,100409.75
2019-02-19T00:44:07.832Z,100405.67
2019-02-19T00:46:39.872Z,100409.06
2019-02-19T00:49:11.893Z,100404.33
2019-02-19T00:51:43.859Z,100405.34
2019-02-19T00:54:15.921Z,100404.67
2019-02-19T00:56:47.851Z,100400.06
2019-02-19T00:59:19.912Z,100395.00
2019-02-19T01:01:52.530Z,100395.83
2019-02-19T01:04:24.845Z,100397.55
2019-02-19T01:06:57.343Z,100390.91
2019-02-19T01:09:29.869Z,100387.00
2019-02-19T01:12:01.868Z,100388.36
2019-02-19T01:14:33.929Z,100384.95
2019-02-19T01:17:05.844Z,100381.95
2019-02-19T01:19:37.896Z,100380.75
2019-02-19T01:22:10.324Z,100380.25
2019-02-19T01:24:42.480Z,100379.91
2019-02-19T01:27:14.911Z,100374.11
2019-02-19T01:29:46.819Z,100378.34
2019-02-19T01:32:19.055Z,100374.64
2019-02-19T01:34:51.080Z,100376.36
2019-02-19T01:37:23.339Z,100375.48
2019-02-19T01:39:55.327Z,100378.20
2019-02-19T01:42:27.931Z,100377.71
2019-02-19T01:45:00.355Z,100373.81
2019-02-19T01:47:32.932Z,100367.70
2019-02-19T01:50:05.540Z,100368.87
2019-02-19T01:52:37.893Z,100371.20
2019-02-19T01:55:10.465Z,100369.23
2019-02-19T01:57:42.822Z,100360.25
2019-02-19T02:00:15.336Z,100362.42
2019-02-19T02:02:47.852Z,100355.66
2019-02-19T02:05:19.869Z,100358.87
2019-02-19T02:07:52.857Z,100358.72
2019-02-19T02:10:24.844Z,100359.86
2019-02-19T02:12:56.893Z,100360.88
2019-02-19T04:31:45.838Z,100356.45
2019-02-19T04:34:18.874Z,100357.61
2019-02-19T04:36:50.884Z,100363.56
2019-02-19T04:39:23.335Z,100356.62
2019-02-19T04:41:55.391Z,100351.17
2019-02-19T04:44:27.638Z,100357.45
2019-02-19T04:46:58.667Z,100361.88
2019-02-19T04:49:30.882Z,100352.89
2019-02-19T04:52:03.319Z,100357.47
2019-02-19T04:54:36.008Z,100349.86
2019-02-19T04:57:07.925Z,100357.66
2019-02-19T04:59:40.157Z,100353.23
2019-02-19T05:02:12.862Z,100355.12
2019-02-19T05:04:44.832Z,100351.70
2019-02-19T05:07:16.901Z,100359.84
2019-02-19T05:09:49.578Z,100361.55
2019-02-19T05:12:21.812Z,100345.92
2019-02-19T05:14:54.022Z,100345.92
2019-02-19T05:17:26.407Z,100360.70
2019-02-19T05:19:58.923Z,100367.13
2019-02-19T05:22:31.456Z,100361.72
2019-02-19T05:25:04.341Z,100364.41
2019-02-19T05:27:36.846Z,100369.84
2019-02-19T05:30:09.611Z,100365.44
2019-02-19T05:32:40.759Z,100372.22
2019-02-19T05:35:11.719Z,100372.22
2019-02-19T05:37:44.054Z,100372.92
2019-02-19T05:40:16.818Z,100373.07
2019-02-19T05:42:49.101Z,100374.93
2019-02-19T05:45:21.391Z,100372.92
2019-02-19T05:47:53.811Z,100377.15
2019-02-19T05:50:26.339Z,100376.97
2019-02-19T05:52:58.622Z,100380.89
2019-02-19T05:55:30.903Z,100361.72
2019-02-19T05:58:03.029Z,100361.72
2019-02-19T06:00:35.418Z,100389.36
2019-02-19T06:03:07.812Z,100390.19
2019-02-19T06:05:40.325Z,100395.45
2019-02-19T06:08:12.867Z,100398.69
2019-02-19T06:10:44.991Z,100393.98
2019-02-19T06:13:17.072Z,100392.41
2019-02-19T06:15:49.361Z,100398.67
2019-02-19T06:18:21.942Z,100392.39
2019-02-19T06:20:53.885Z,100398.33
2019-02-19T06:23:25.903Z,100396.27
2019-02-19T06:25:58.120Z,100406.61
2019-02-19T06:28:30.361Z,100400.86
2019-02-19T06:31:02.873Z,100406.80
2019-02-19T06:33:34.809Z,100406.29
2019-02-19T06:36:06.912Z,100411.88
2019-02-19T06:38:38.832Z,100411.88
2019-02-19T06:41:10.872Z,100409.84
2019-02-19T06:43:42.869Z,100409.18
2019-02-19T06:46:15.054Z,100413.91
2019-02-19T06:48:47.318Z,100424.94
2019-02-19T06:51:19.866Z,100433.07
2019-02-19T06:53:51.830Z,100432.89
2019-02-19T06:56:23.864Z,100426.11
2019-02-19T06:58:55.811Z,100438.67
2019-02-19T07:01:52.511Z,100430.52
2019-02-19T07:04:28.791Z,100420.83
2019-02-19T07:07:01.574Z,100420.83
2019-02-19T07:09:33.832Z,100435.28
2019-02-19T07:12:05.858Z,100435.28
2019-02-19T07:14:38.100Z,100438.67
2019-02-19T07:17:15.771Z,100447.49
2019-02-19T07:19:43.853Z,100447.52
2019-02-19T07:22:16.020Z,100446.87
2019-02-19T07:24:48.842Z,100440.05
2019-02-19T07:27:20.821Z,100443.14
2019-02-19T07:29:52.844Z,100450.77
2019-02-19T07:32:24.829Z,100453.50
2019-02-19T07:34:56.896Z,100451.13
2019-02-19T07:37:29.336Z,100457.41
2019-02-19T07:40:01.823Z,100456.72
2019-02-19T07:42:34.323Z,100448.74
2019-02-19T07:45:06.824Z,100455.37
2019-02-19T07:47:38.861Z,100455.55
2019-02-19T07:50:11.884Z,100462.14
2019-02-19T07:52:43.823Z,100453.14
2019-02-19T07:55:15.859Z,100463.50
2019-02-19T07:57:47.831Z,100463.34
2019-02-19T08:00:19.847Z,100461.98
2019-02-19T08:02:51.867Z,100468.94
2019-02-19T08:05:24.333Z,100474.36
2019-02-19T08:07:56.576Z,100473.52
2019-02-19T08:10:28.807Z,100473.69
2019-02-19T08:13:01.328Z,100473.69
2019-02-19T08:15:33.408Z,100477.08
2019-02-19T08:18:05.486Z,100472.34
2019-02-19T08:20:37.568Z,100475.05
2019-02-19T08:23:09.881Z,100472.19
2019-02-19T08:25:41.823Z,100472.19
2019-02-19T08:28:13.837Z,100479.30
2019-02-19T08:30:45.834Z,100472.69
2019-02-19T08:33:17.802Z,100475.92
2019-02-19T08:35:49.811Z,100477.45
2019-02-19T08:38:22.808Z,100482.38
2019-02-19T08:40:54.923Z,100482.36
2019-02-19T08:43:27.085Z,100489.66
2019-02-19T08:45:59.335Z,100481.84
2019-02-19T08:48:31.891Z,100484.41
2019-02-19T08:51:06.736Z,100484.60
2019-02-19T08:53:37.736Z,100487.13
2019-02-19T08:56:08.657Z,100483.23
2019-02-19T08:58:41.383Z,100484.43
2019-02-19T09:01:13.477Z,100484.43
2019-02-19T09:03:45.835Z,100489.84
2019-02-19T09:06:17.845Z,100491.72
2019-02-19T09:08:49.834Z,100496.11
2019-02-19T09:11:22.839Z,100497.48
2019-02-19T09:13:55.017Z,100501.91
2019-02-19T09:16:26.832Z,100500.03
2019-02-19T09:18:59.312Z,100503.09
2019-02-19T09:21:31.314Z,100508.01
2019-02-19T09:24:09.183Z,100510.91
2019-02-19T09:26:36.872Z,100512.60
2019-02-19T09:29:09.371Z,100515.64
2019-02-19T09:31:41.828Z,100514.13
2019-02-19T09:34:14.050Z,100512.13
2019-02-19T09:36:45.883Z,100515.17
2019-02-19T09:39:18.316Z,100508.53
2019-02-19T09:41:50.287Z,100515.16
2019-02-19T09:44:22.445Z,100512.42
2019-02-19T09:46:54.493Z,100512.45
2019-02-19T09:49:26.520Z,100516.84
2019-02-19T09:51:58.534Z,100516.19
2019-02-19T09:54:30.812Z,100513.13
2019-02-19T09:57:03.044Z,100515.48
2019-02-19T09:59:36.471Z,100518.72
2019-02-19T10:02:08.803Z,100516.88
2019-02-19T10:04:40.810Z,100510.91
2019-02-19T10:07:12.915Z,100508.72
2019-02-19T10:09:47.918Z,100510.40
2019-02-19T10:12:20.443Z,100514.83
2019-02-19T10:14:55.659Z,100515.49
2019-02-19T10:17:26.685Z,100525.17
2019-02-19T10:19:58.822Z,100536.20
2019-02-19T10:22:30.817Z,100538.08
2019-02-19T10:25:02.879Z,100544.89
2019-02-19T10:27:34.841Z,100539.78
2019-02-19T10:30:08.993Z,100536.05
2019-02-19T10:32:40.842Z,100540.81
2019-02-19T10:35:13.922Z,100533.00
2019-02-19T10:37:47.386Z,100532.31
2019-02-19T10:40:19.516Z,100540.95
2019-02-19T10:42:51.847Z,100534.87
2019-02-19T10:45:24.415Z,100533.17
2019-02-19T10:47:56.875Z,100527.55
2019-02-19T10:50:29.318Z,100530.62
2019-02-19T10:53:01.332Z,100528.91
2019-02-19T10:55:33.337Z,100531.30
2019-02-19T10:58:05.854Z,100527.72
2019-02-19T11:00:37.782Z,100524.15
2019-02-19T11:03:09.856Z,100526.19
2019-02-19T11:05:41.859Z,100520.59
2019-02-19T11:08:13.678Z,100520.24
2019-02-19T11:10:44.567Z,100523.98
2019-02-19T11:13:16.886Z,100533.83
2019-02-19T11:15:48.851Z,100533.83
2019-02-19T11:18:28.050Z,100527.91
2019-02-19T11:20:58.367Z,100525.87
2019-02-19T11:23:31.102Z,100531.45
2019-02-19T11:26:03.790Z,100533.48
2019-02-19T11:28:35.862Z,100535.02
2019-02-19T11:31:07.869Z,100534.50
2019-02-19T11:33:39.874Z,100542.16
2019-02-19T11:36:11.851Z,100542.34
2019-02-19T11:38:44.333Z,100546.22
2019-02-19T11:41:17.339Z,100547.25
2019-02-19T11:43:50.100Z,100540.78
2019-02-19T11:46:22.883Z,100538.06
2019-02-19T11:48:56.195Z,100531.59
2019-02-19T11:51:28.894Z,100538.06
2019-02-19T11:54:01.291Z,100536.22
2019-02-19T11:56:33.897Z,100535.37
2019-02-19T11:59:06.038Z,100531.13
2019-02-19T12:01:38.325Z,100530.77
2019-02-19T12:04:10.843Z,100523.46
2019-02-19T12:06:43.037Z,100539.45
2019-02-19T12:09:15.627Z,100538.23
2019-02-19T12:11:47.856Z,100526.50
2019-02-19T12:14:20.321Z,100526.50
2019-02-19T12:16:52.919Z,100533.64
2019-02-19T12:19:24.878Z,100537.56
2019-02-19T12:21:57.336Z,100530.08
2019-02-19T12:24:29.840Z,100525.48
2019-02-19T12:27:02.496Z,100527.02
2019-02-19T12:29:35.342Z,100528.37
2019-02-19T12:32:07.867Z,100532.78
2019-02-19T12:34:40.314Z,100526.16
2019-02-19T12:37:13.322Z,100529.88
2019-02-19T12:39:45.885Z,100524.27
2019-02-19T12:42:18.041Z,100531.07
2019-02-19T12:44:51.334Z,100526.50
2019-02-19T12:47:23.816Z,100514.59
2019-02-19T12:49:56.320Z,100514.59
2019-02-19T12:52:28.815Z,100513.94
2019-02-19T12:55:00.863Z,100507.98
2019-02-19T12:57:33.113Z,100506.98
2019-02-19T13:00:06.393Z,100511.06
2019-02-19T13:02:38.575Z,100508.34
2019-02-19T13:05:13.104Z,100516.14
2019-02-19T13:07:46.994Z,100516.14
2019-02-19T13:10:19.866Z,100516.48
2019-02-19T13:12:51.849Z,100516.50
2019-02-19T13:15:23.842Z,100504.75
2019-02-19T13:17:56.292Z,100511.06
2019-02-19T13:20:29.346Z,100519.54
2019-02-19T13:23:01.876Z,100514.61
2019-02-19T13:25:33.806Z,100507.98
2019-02-19T13:28:05.845Z,100499.48
2019-02-19T13:30:38.279Z,100497.28
2019-02-19T13:33:10.818Z,100502.88
2019-02-19T13:35:42.869Z,100508.17
2019-02-19T13:38:14.858Z,100506.62
2019-02-19T13:40:46.835Z,100512.77
2019-02-19T13:43:18.828Z,100512.09
2019-02-19T13:45:50.869Z,100513.78
2019-02-19T13:48:22.839Z,100509.67
2019-02-19T13:50:54.870Z,100508.51
2019-02-19T13:53:32.321Z,100502.20
2019-02-19T13:56:05.456Z,100506.11
2019-02-19T13:58:38.119Z,100501.00
2019-02-19T14:01:10.335Z,100499.50
2019-02-19T14:03:42.836Z,100500.34
2019-02-19T14:06:14.851Z,100492.36
2019-02-19T14:08:46.825Z,100495.76
2019-02-19T14:11:18.818Z,100489.64
2019-02-19T14:14:12.290Z,100491.00
2019-02-19T14:17:03.391Z,100489.83
2019-02-19T14:20:06.634Z,100497.79
2019-02-19T14:22:58.026Z,100508.36
2019-02-19T14:25:57.662Z,100508.36
2019-02-19T14:28:48.319Z,100496.12
2019-02-19T14:31:48.634Z,100496.12
2019-02-19T14:34:41.322Z,100527.22
2019-02-19T14:37:42.101Z,100527.22
2019-02-19T14:40:31.711Z,100522.30
2019-02-19T14:43:16.521Z,100525.00
2019-02-19T14:46:10.331Z,100527.53
2019-02-19T14:49:16.816Z,100528.73
2019-02-19T14:52:25.935Z,100530.78
2019-02-19T14:55:11.842Z,100520.40
2019-02-19T14:58:00.906Z,100523.77
2019-02-19T15:00:55.048Z,100526.66
2019-02-19T15:03:44.507Z,100526.67
2019-02-19T15:06:34.464Z,100531.38
2019-02-19T15:09:23.115Z,100531.38
2019-02-19T15:12:13.827Z,100527.95
2019-02-19T15:15:23.363Z,100525.55
2019-02-19T15:18:20.408Z,100525.55
2019-02-19T15:21:00.329Z,100530.66
2019-02-19T15:23:43.802Z,100530.03
2019-02-19T15:26:32.314Z,100526.92
2019-02-19T15:29:26.557Z,100520.42
2019-02-19T15:32:20.481Z,100526.02
2019-02-19T15:35:14.365Z,100520.11
2019-02-19T15:38:23.655Z,100526.28
2019-02-19T15:41:17.335Z,100535.15
2019-02-19T15:43:57.445Z,100535.15
2019-02-19T15:46:47.001Z,100529.57
2019-02-19T15:49:37.425Z,100529.11
2019-02-19T15:52:35.903Z,100525.26
2019-02-19T15:55:42.339Z,100531.82
2019-02-19T15:58:27.663Z,100529.63
2019-02-19T16:01:17.048Z,100503.72
2019-02-19T16:03:58.527Z,100503.72
2019-02-19T16:06:51.956Z,100525.81
2019-02-19T16:09:31.531Z,100530.65
2019-02-19T16:12:22.921Z,100526.77
2019-02-19T16:15:16.457Z,100530.23
2019-02-19T16:18:20.309Z,100534.17
2019-02-19T16:21:14.433Z,100531.02
2019-02-19T16:24:04.448Z,100531.78
2019-02-19T16:26:55.851Z,100532.70
2019-02-19T16:29:59.636Z,100532.70
2019-02-19T16:32:40.891Z,100542.96
2019-02-19T16:35:23.861Z,100542.96
2019-02-19T16:38:20.530Z,100548.91
2019-02-19T16:41:29.619Z,100547.37
2019-02-19T16:44:06.878Z,100549.42
2019-02-19T16:46:45.335Z,100549.42
2019-02-19T16:49:45.483Z,100551.14
2019-02-19T16:52:35.412Z,100554.88
2019-02-19T16:55:26.817Z,100555.73
2019-02-19T16:58:23.330Z,100559.30
2019-02-19T17:01:13.893Z,100569.31
2019-02-19T17:04:03.461Z,100571.36
2019-02-19T17:07:00.083Z,100567.45
2019-02-19T17:09:39.036Z,100575.35
2019-02-19T17:12:21.067Z,100579.56
2019-02-19T17:15:24.321Z,100581.77
2019-02-19T17:18:27.885Z,100580.21
2019-02-19T17:21:21.726Z,100583.29
2019-02-19T17:24:19.018Z,100593.49
2019-02-19T17:27:19.670Z,100589.61
2019-02-19T17:31:41.249Z,100595.05
2019-02-19T17:34:41.218Z,100598.14
2019-02-19T17:37:32.810Z,100596.30
2019-02-19T17:40:16.451Z,100599.03
2019-02-19T17:43:07.363Z,100595.31
2019-02-19T17:45:46.824Z,100602.27
2019-02-19T17:48:29.475Z,100609.91
2019-02-19T17:51:16.805Z,100613.67
2019-02-19T17:54:10.014Z,100605.33
2019-02-19T17:56:56.861Z,100605.33
2019-02-19T17:59:51.046Z,100610.78
2019-02-19T18:02:37.332Z,100612.98
2019-02-19T18:05:37.426Z,100612.45
2019-02-19T18:08:28.455Z,100610.06
2019-02-19T18:11:09.450Z,100615.85
2019-02-19T18:14:05.918Z,100622.03
2019-02-19T18:16:59.448Z,100624.63
2019-02-19T18:19:31.847Z,100615.64
2019-02-19T18:22:03.852Z,100622.56
2019-02-19T18:24:36.116Z,100623.77
2019-02-19T18:27:08.927Z,100622.56
2019-02-19T18:29:41.107Z,100626.60
2019-02-19T18:32:13.842Z,100627.81
2019-02-19T18:34:46.316Z,100632.63
2019-02-19T18:37:18.849Z,100634.02
2019-02-19T18:39:50.888Z,100639.52
2019-02-19T18:42:23.321Z,100636.31
2019-02-19T18:44:56.860Z,100635.33
2019-02-19T18:47:29.324Z,100635.16
2019-02-19T18:50:02.065Z,100642.81
2019-02-19T18:52:34.317Z,100645.06
2019-02-19T18:55:06.931Z,100638.58
2019-02-19T18:57:39.012Z,100636.58
2019-02-19T19:00:12.895Z,100625.05
2019-02-19T19:02:45.339Z,100622.00
2019-02-19T19:05:17.869Z,100611.80
2019-02-19T19:07:49.873Z,100620.31
2019-02-19T19:10:23.023Z,100616.59
2019-02-19T19:12:55.854Z,100626.31
2019-02-19T19:15:28.320Z,100623.59
2019-02-19T19:18:00.862Z,100631.45
2019-02-19T19:20:32.829Z,100628.75
2019-02-19T19:23:04.849Z,100637.41
2019-02-19T19:25:36.863Z,100635.19
2019-02-19T19:28:09.493Z,100635.19
2019-02-19T19:30:41.879Z,100634.16
2019-02-19T19:33:17.275Z,100634.16
2019-02-19T19:35:50.130Z,100650.48
2019-02-19T19:38:22.347Z,100648.62
2019-02-19T19:40:54.839Z,100654.57
2019-02-19T19:43:26.837Z,100655.44
2019-02-19T19:45:58.839Z,100649.67
2019-02-19T19:48:30.862Z,100648.62
2019-02-19T19:51:02.863Z,100651.09
2019-02-19T19:53:35.323Z,100650.30
2019-02-19T19:56:07.843Z,100651.41
2019-02-19T19:58:39.863Z,100649.61
2019-02-19T20:01:11.814Z,100656.35
2019-02-19T20:03:43.882Z,100654.98
2019-02-19T20:06:15.877Z,100662.38
2019-02-19T20:08:47.824Z,100667.35
2019-02-19T20:11:20.417Z,100661.07
2019-02-19T20:13:52.815Z,100668.57
2019-02-19T20:16:24.815Z,100675.80
2019-02-19T20:18:56.807Z,100676.80
2019-02-19T20:21:33.339Z,100678.89
2019-02-19T20:24:05.517Z,100674.97
2019-02-19T20:26:37.809Z,100671.95
2019-02-19T20:29:09.861Z,100681.37
2019-02-19T20:31:41.874Z,100679.13
2019-02-19T20:34:14.420Z,100682.94
2019-02-19T20:36:47.299Z,100671.56
2019-02-19T20:39:19.893Z,100683.50
2019-02-19T20:41:51.854Z,100687.30
2019-02-19T20:44:24.323Z,100689.69
2019-02-19T20:46:56.871Z,100693.64
2019-02-19T20:49:29.310Z,100690.78
2019-02-19T20:52:01.681Z,100682.97
2019-02-19T20:54:33.855Z,100680.23
2019-02-19T20:57:07.883Z,100680.23
2019-02-19T20:59:40.368Z,100695.89
2019-02-19T21:02:12.908Z,100699.80
2019-02-19T21:04:44.905Z,100701.00
2019-02-19T21:07:17.356Z,100703.02
2019-02-19T21:09:49.868Z,100708.63
2019-02-19T21:12:22.372Z,100709.81
2019-02-19T21:14:55.808Z,100709.15
2019-02-19T21:17:28.444Z,100712.55
2019-02-19T21:20:00.853Z,100712.55
2019-02-19T21:22:33.877Z,100714.59
2019-02-19T21:25:06.327Z,100715.95
2019-02-19T21:27:39.041Z,100715.43
2019-02-19T21:30:12.689Z,100715.96
2019-02-19T21:32:44.832Z,100717.12
2019-02-19T21:35:17.360Z,100724.08
2019-02-19T21:37:50.283Z,100722.73
2019-02-19T21:40:22.828Z,100723.08
2019-02-19T21:42:54.837Z,100724.75
2019-02-19T21:45:27.074Z,100730.19
2019-02-19T21:47:59.841Z,100730.19
2019-02-19T21:50:32.860Z,100729.51
2019-02-19T21:53:05.839Z,100726.95
2019-02-19T21:55:38.328Z,100734.59
2019-02-19T21:58:10.860Z,100733.42
2019-02-19T22:00:43.011Z,100729.14
2019-02-19T22:03:15.322Z,100733.42
2019-02-19T22:05:48.518Z,100736.47
2019-02-19T22:08:21.020Z,100739.84
2019-02-19T22:10:53.997Z,100736.61
2019-02-19T22:13:26.565Z,100745.06
2019-02-19T22:15:58.800Z,100752.16
2019-02-19T22:18:30.899Z,100758.95
2019-02-19T22:22:10.370Z,100755.39
2019-02-19T22:24:42.905Z,100758.06
2019-02-19T22:27:14.903Z,100761.65
2019-02-19T22:29:46.830Z,100769.41
2019-02-19T22:32:20.599Z,100770.06
2019-02-19T22:34:52.863Z,100766.00
2019-02-19T22:37:24.875Z,100766.00
2019-02-19T22:39:56.846Z,100763.46
2019-02-19T22:42:28.892Z,100763.94
2019-02-19T22:45:01.564Z,100772.78
2019-02-19T22:47:33.812Z,100771.09
2019-02-19T22:50:07.056Z,100772.45
2019-02-19T22:52:40.331Z,100771.24
2019-02-19T22:55:33.473Z,100771.42
2019-02-19T22:58:05.870Z,100772.42
2019-02-19T23:00:57.923Z,100772.56
2019-02-19T23:03:29.884Z,100773.56
2019-02-19T23:06:01.863Z,100769.67
2019-02-19T23:08:34.029Z,100773.19
2019-02-19T23:11:06.348Z,100776.78
2019-02-19T23:13:38.922Z,100773.38
2019-02-19T23:16:11.328Z,100777.08
2019-02-19T23:18:43.883Z,100781.52
2019-02-19T23:21:15.885Z,100779.13
2019-02-19T23:23:47.898Z,100781.52
2019-02-19T23:26:20.852Z,100779.98
2019-02-19T23:28:53.324Z,100785.22
2019-02-19T23:31:26.014Z,100779.42
2019-02-19T23:33:58.367Z,100780.92
2019-02-19T23:36:42.559Z,100779.19
2019-02-19T23:39:14.848Z,100783.78
2019-02-19T23:41:46.856Z,100779.86
2019-02-19T23:44:19.320Z,100776.15
2019-02-19T23:46:54.778Z,100776.81
2019-02-19T23:49:26.841Z,100782.70
2019-02-19T23:51:59.811Z,100782.70
2019-02-19T23:54:31.885Z,100783.07
2019-02-19T23:57:04.025Z,100783.41
2019-02-19T23:59:37.017Z,100788.32
